Cooleemee, North Carolina
Current Conditions -  °F | °C
As of 3:35 AM on Friday 24 Oct 2014 (Local Time) from KRUQ Reporting Station
Clear Clear  
Wind Chill: 41°   Ceiling: Unl
Heat Index: 41°   Visibility: 10mi
Dew Point: 40°   Wind: 0mph
Humidity: 93%   Direction: NA
Pressure: 30.05"   Gusts: NA
Location:  35.81°N, 80.56°W
Report Text: KRUQ 240735Z AUTO 00000KT 10SM CLR 05/04 A3005 RMK AO2 T00520042
Loading
Personal Weather Stations






























Interactive Weather Map
Tropical Storm Tracking
New forecast layout! Learn more

10-Day Weather Forecast

Advertisements
Track Severe Weather on mobile